Search for airport 
image banner adimage banner adimage banner ad
image banner ad

CL16 - Turner Field/Amphibious Base

Located in Coronado, United States

ICAO - CL16, IATA -

Data provided by Airmate  

General information

Coordinates: N32°40'42" W117°9'20"
Elevation is 12 feet MSL.
Magnetic variation is 14° East
View others Airports in California

Operational data

Special qualification required
Current time UTC:
Current local time:
METAR: KNZY 210952Z AUTO 26003KT 10SM OVC012 17/14 A2992 RMK AO2 SLP133 T01720139
TAF: TAF KNZY 2107/2207 28006KT 9999 OVC012 QNH2988INS TEMPO 2107/2111 6000 BR OVC008 FM211100 28008KT 6000 BR OVC008 QNH2989INS FM211800 28013G18KT 9999 SCT008 SCT012 QNH2988INS FM220300 28008KT 8000 BR BKN008 OVC012 QNH2989INS AUTOMATED SENSOR METWATCH 2107 TIL 2114 T17/2114Z T23/2121Z FS30173
View NOTAMs / SUP AIP / TFR affecting this airport [VIEW]
Communications frequencies: [VIEW]

Runways:

Airport contact information

Address: Coronado United States

Satellite view of CL16